sensor_id;sensor_type;location;lat;lon;timestamp;P1;durP1;ratioP1;P2;durP2;ratioP2
3811;SDS011;1921;49.368;11.068;2022-07-19T00:02:03;56.27;;;50.27;;
3811;SDS011;1921;49.368;11.068;2022-07-19T00:04:30;57.47;;;51.10;;
3811;SDS011;1921;49.368;11.068;2022-07-19T00:06:57;56.67;;;50.53;;
3811;SDS011;1921;49.368;11.068;2022-07-19T00:09:24;57.20;;;51.10;;
3811;SDS011;1921;49.368;11.068;2022-07-19T00:11:51;56.87;;;50.87;;
3811;SDS011;1921;49.368;11.068;2022-07-19T00:14:17;57.97;;;50.47;;
3811;SDS011;1921;49.368;11.068;2022-07-19T00:16:43;56.73;;;50.63;;
3811;SDS011;1921;49.368;11.068;2022-07-19T00:19:09;57.20;;;51.13;;
3811;SDS011;1921;49.368;11.068;2022-07-19T00:21:34;57.17;;;51.00;;
3811;SDS011;1921;49.368;11.068;2022-07-19T00:24:00;56.70;;;50.60;;
3811;SDS011;1921;49.368;11.068;2022-07-19T00:26:27;56.77;;;50.77;;
3811;SDS011;1921;49.368;11.068;2022-07-19T00:28:53;56.63;;;50.63;;
3811;SDS011;1921;49.368;11.068;2022-07-19T00:31:21;57.70;;;51.40;;
3811;SDS011;1921;49.368;11.068;2022-07-19T00:33:48;57.00;;;50.90;;
3811;SDS011;1921;49.368;11.068;2022-07-19T00:36:15;60.40;;;51.37;;
3811;SDS011;1921;49.368;11.068;2022-07-19T00:38:40;56.90;;;50.87;;
3811;SDS011;1921;49.368;11.068;2022-07-19T00:41:06;56.53;;;50.60;;
3811;SDS011;1921;49.368;11.068;2022-07-19T00:43:32;57.17;;;51.13;;
3811;SDS011;1921;49.368;11.068;2022-07-19T00:45:58;58.23;;;50.90;;
3811;SDS011;1921;49.368;11.068;2022-07-19T00:48:24;56.30;;;50.37;;
3811;SDS011;1921;49.368;11.068;2022-07-19T00:50:50;58.77;;;51.37;;
3811;SDS011;1921;49.368;11.068;2022-07-19T00:53:16;56.67;;;50.67;;
3811;SDS011;1921;49.368;11.068;2022-07-19T00:55:44;57.90;;;51.70;;
3811;SDS011;1921;49.368;11.068;2022-07-19T00:58:11;56.73;;;50.63;;
3811;SDS011;1921;49.368;11.068;2022-07-19T01:00:41;57.73;;;50.80;;
3811;SDS011;1921;49.368;11.068;2022-07-19T01:03:07;57.27;;;51.17;;
3811;SDS011;1921;49.368;11.068;2022-07-19T01:05:33;57.50;;;51.40;;
3811;SDS011;1921;49.368;11.068;2022-07-19T01:07:59;56.93;;;50.70;;
3811;SDS011;1921;49.368;11.068;2022-07-19T01:10:26;57.60;;;51.03;;
3811;SDS011;1921;49.368;11.068;2022-07-19T01:12:52;57.17;;;50.67;;
3811;SDS011;1921;49.368;11.068;2022-07-19T01:15:19;58.63;;;51.27;;
3811;SDS011;1921;49.368;11.068;2022-07-19T01:17:48;60.37;;;50.90;;
3811;SDS011;1921;49.368;11.068;2022-07-19T01:20:15;56.20;;;50.20;;
3811;SDS011;1921;49.368;11.068;2022-07-19T01:22:42;57.03;;;50.83;;
3811;SDS011;1921;49.368;11.068;2022-07-19T01:25:09;55.67;;;49.87;;
3811;SDS011;1921;49.368;11.068;2022-07-19T01:27:43;55.80;;;50.00;;
3811;SDS011;1921;49.368;11.068;2022-07-19T01:30:14;56.60;;;50.60;;
3811;SDS011;1921;49.368;11.068;2022-07-19T01:32:46;55.70;;;49.87;;
3811;SDS011;1921;49.368;11.068;2022-07-19T01:35:13;56.23;;;50.30;;
3811;SDS011;1921;49.368;11.068;2022-07-19T01:37:40;56.00;;;50.20;;
3811;SDS011;1921;49.368;11.068;2022-07-19T01:40:08;56.53;;;50.53;;
3811;SDS011;1921;49.368;11.068;2022-07-19T01:42:38;57.47;;;50.80;;
3811;SDS011;1921;49.368;11.068;2022-07-19T01:45:05;56.80;;;50.80;;
3811;SDS011;1921;49.368;11.068;2022-07-19T01:47:33;56.63;;;50.53;;
3811;SDS011;1921;49.368;11.068;2022-07-19T01:49:59;57.77;;;51.00;;
3811;SDS011;1921;49.368;11.068;2022-07-19T01:52:24;56.70;;;50.70;;
3811;SDS011;1921;49.368;11.068;2022-07-19T01:54:50;57.07;;;50.90;;
3811;SDS011;1921;49.368;11.068;2022-07-19T01:57:16;56.83;;;50.97;;
3811;SDS011;1921;49.368;11.068;2022-07-19T01:59:42;56.73;;;50.20;;
3811;SDS011;1921;49.368;11.068;2022-07-19T02:02:07;56.13;;;50.03;;
3811;SDS011;1921;49.368;11.068;2022-07-19T02:04:34;55.93;;;50.13;;
3811;SDS011;1921;49.368;11.068;2022-07-19T02:07:00;56.33;;;50.43;;
3811;SDS011;1921;49.368;11.068;2022-07-19T02:09:25;56.77;;;50.83;;
3811;SDS011;1921;49.368;11.068;2022-07-19T02:11:51;56.53;;;50.23;;
3811;SDS011;1921;49.368;11.068;2022-07-19T02:14:17;55.97;;;50.17;;
3811;SDS011;1921;49.368;11.068;2022-07-19T02:16:43;56.77;;;50.70;;
3811;SDS011;1921;49.368;11.068;2022-07-19T02:19:10;56.30;;;50.50;;
3811;SDS011;1921;49.368;11.068;2022-07-19T02:21:36;56.03;;;50.17;;
3811;SDS011;1921;49.368;11.068;2022-07-19T02:24:04;56.13;;;50.33;;
3811;SDS011;1921;49.368;11.068;2022-07-19T02:26:32;56.90;;;50.80;;
3811;SDS011;1921;49.368;11.068;2022-07-19T02:28:58;56.50;;;50.40;;
3811;SDS011;1921;49.368;11.068;2022-07-19T02:31:24;56.70;;;50.70;;
3811;SDS011;1921;49.368;11.068;2022-07-19T02:33:50;56.17;;;50.37;;
3811;SDS011;1921;49.368;11.068;2022-07-19T02:36:16;57.10;;;51.10;;
3811;SDS011;1921;49.368;11.068;2022-07-19T02:38:42;56.20;;;50.40;;
3811;SDS011;1921;49.368;11.068;2022-07-19T02:41:09;55.63;;;49.80;;
3811;SDS011;1921;49.368;11.068;2022-07-19T02:43:35;56.27;;;50.20;;
3811;SDS011;1921;49.368;11.068;2022-07-19T02:46:01;55.90;;;50.10;;
3811;SDS011;1921;49.368;11.068;2022-07-19T02:48:26;55.13;;;49.43;;
3811;SDS011;1921;49.368;11.068;2022-07-19T02:50:52;56.27;;;50.10;;
3811;SDS011;1921;49.368;11.068;2022-07-19T02:53:18;58.30;;;51.07;;
3811;SDS011;1921;49.368;11.068;2022-07-19T02:55:44;55.97;;;50.07;;
3811;SDS011;1921;49.368;11.068;2022-07-19T02:58:09;55.90;;;50.10;;
3811;SDS011;1921;49.368;11.068;2022-07-19T03:00:35;55.50;;;49.70;;
3811;SDS011;1921;49.368;11.068;2022-07-19T03:03:01;55.93;;;50.13;;
3811;SDS011;1921;49.368;11.068;2022-07-19T03:05:47;55.97;;;50.07;;
3811;SDS011;1921;49.368;11.068;2022-07-19T03:08:14;57.87;;;51.57;;
3811;SDS011;1921;49.368;11.068;2022-07-19T03:10:40;55.50;;;49.70;;
3811;SDS011;1921;49.368;11.068;2022-07-19T03:13:06;56.53;;;50.47;;
3811;SDS011;1921;49.368;11.068;2022-07-19T03:15:33;55.60;;;49.70;;
3811;SDS011;1921;49.368;11.068;2022-07-19T03:18:00;56.93;;;50.47;;
3811;SDS011;1921;49.368;11.068;2022-07-19T03:20:27;56.07;;;50.17;;
3811;SDS011;1921;49.368;11.068;2022-07-19T03:22:53;56.10;;;50.30;;
3811;SDS011;1921;49.368;11.068;2022-07-19T03:25:19;55.90;;;50.10;;
3811;SDS011;1921;49.368;11.068;2022-07-19T03:27:45;55.90;;;50.10;;
3811;SDS011;1921;49.368;11.068;2022-07-19T03:30:10;55.97;;;49.83;;
3811;SDS011;1921;49.368;11.068;2022-07-19T03:32:36;56.60;;;50.70;;
3811;SDS011;1921;49.368;11.068;2022-07-19T03:35:02;56.90;;;50.90;;
3811;SDS011;1921;49.368;11.068;2022-07-19T03:37:28;57.33;;;51.40;;
3811;SDS011;1921;49.368;11.068;2022-07-19T03:39:54;56.37;;;50.47;;
3811;SDS011;1921;49.368;11.068;2022-07-19T03:42:19;56.77;;;50.83;;
3811;SDS011;1921;49.368;11.068;2022-07-19T03:44:45;56.30;;;50.40;;
3811;SDS011;1921;49.368;11.068;2022-07-19T03:47:11;56.30;;;50.40;;
3811;SDS011;1921;49.368;11.068;2022-07-19T03:49:37;56.97;;;50.97;;
3811;SDS011;1921;49.368;11.068;2022-07-19T03:52:02;56.47;;;50.47;;
3811;SDS011;1921;49.368;11.068;2022-07-19T03:54:28;57.63;;;51.33;;
3811;SDS011;1921;49.368;11.068;2022-07-19T03:56:54;57.33;;;51.17;;
3811;SDS011;1921;49.368;11.068;2022-07-19T03:59:20;58.07;;;51.27;;
3811;SDS011;1921;49.368;11.068;2022-07-19T04:01:50;58.17;;;51.77;;
3811;SDS011;1921;49.368;11.068;2022-07-19T04:04:16;65.10;;;52.50;;
3811;SDS011;1921;49.368;11.068;2022-07-19T04:06:42;60.27;;;52.30;;
3811;SDS011;1921;49.368;11.068;2022-07-19T04:09:07;61.13;;;52.27;;
3811;SDS011;1921;49.368;11.068;2022-07-19T04:11:33;60.50;;;52.60;;
3811;SDS011;1921;49.368;11.068;2022-07-19T04:13:59;61.50;;;53.40;;
3811;SDS011;1921;49.368;11.068;2022-07-19T04:16:24;61.10;;;53.10;;
3811;SDS011;1921;49.368;11.068;2022-07-19T04:18:50;62.93;;;53.10;;
3811;SDS011;1921;49.368;11.068;2022-07-19T04:21:16;62.47;;;53.43;;
3811;SDS011;1921;49.368;11.068;2022-07-19T04:23:42;61.20;;;53.53;;
3811;SDS011;1921;49.368;11.068;2022-07-19T04:26:07;64.83;;;53.90;;
3811;SDS011;1921;49.368;11.068;2022-07-19T04:28:33;61.87;;;53.30;;
3811;SDS011;1921;49.368;11.068;2022-07-19T04:30:59;64.77;;;54.10;;
3811;SDS011;1921;49.368;11.068;2022-07-19T04:33:24;65.20;;;54.50;;
3811;SDS011;1921;49.368;11.068;2022-07-19T04:35:50;64.90;;;53.90;;
3811;SDS011;1921;49.368;11.068;2022-07-19T04:38:18;65.47;;;54.40;;
3811;SDS011;1921;49.368;11.068;2022-07-19T04:40:45;64.10;;;54.30;;
3811;SDS011;1921;49.368;11.068;2022-07-19T04:43:11;67.20;;;54.50;;
3811;SDS011;1921;49.368;11.068;2022-07-19T04:45:37;64.77;;;54.80;;
3811;SDS011;1921;49.368;11.068;2022-07-19T04:48:04;66.90;;;55.40;;
3811;SDS011;1921;49.368;11.068;2022-07-19T04:50:30;65.30;;;55.10;;
3811;SDS011;1921;49.368;11.068;2022-07-19T04:52:56;67.67;;;55.10;;
3811;SDS011;1921;49.368;11.068;2022-07-19T04:55:22;65.20;;;55.03;;
3811;SDS011;1921;49.368;11.068;2022-07-19T04:57:48;67.00;;;55.10;;
3811;SDS011;1921;49.368;11.068;2022-07-19T05:00:14;67.00;;;55.30;;
3811;SDS011;1921;49.368;11.068;2022-07-19T05:02:39;66.30;;;56.03;;
3811;SDS011;1921;49.368;11.068;2022-07-19T05:05:05;66.37;;;55.83;;
3811;SDS011;1921;49.368;11.068;2022-07-19T05:07:32;65.70;;;55.30;;
3811;SDS011;1921;49.368;11.068;2022-07-19T05:09:58;67.17;;;55.40;;
3811;SDS011;1921;49.368;11.068;2022-07-19T05:12:24;65.60;;;55.40;;
3811;SDS011;1921;49.368;11.068;2022-07-19T05:14:49;65.43;;;54.90;;
3811;SDS011;1921;49.368;11.068;2022-07-19T05:17:15;64.50;;;55.10;;
3811;SDS011;1921;49.368;11.068;2022-07-19T05:19:41;66.43;;;55.67;;
3811;SDS011;1921;49.368;11.068;2022-07-19T05:22:07;66.67;;;55.13;;
3811;SDS011;1921;49.368;11.068;2022-07-19T05:24:33;68.57;;;55.27;;
3811;SDS011;1921;49.368;11.068;2022-07-19T05:26:58;65.47;;;55.47;;
3811;SDS011;1921;49.368;11.068;2022-07-19T05:29:24;64.10;;;55.13;;
3811;SDS011;1921;49.368;11.068;2022-07-19T05:31:50;67.43;;;56.30;;
3811;SDS011;1921;49.368;11.068;2022-07-19T05:34:16;70.30;;;56.10;;
3811;SDS011;1921;49.368;11.068;2022-07-19T05:36:42;68.83;;;56.30;;
3811;SDS011;1921;49.368;11.068;2022-07-19T05:39:08;65.73;;;55.20;;
3811;SDS011;1921;49.368;11.068;2022-07-19T05:41:33;68.00;;;55.40;;
3811;SDS011;1921;49.368;11.068;2022-07-19T05:43:59;67.57;;;55.67;;
3811;SDS011;1921;49.368;11.068;2022-07-19T05:46:25;67.60;;;56.23;;
3811;SDS011;1921;49.368;11.068;2022-07-19T05:48:51;66.83;;;55.70;;
3811;SDS011;1921;49.368;11.068;2022-07-19T05:51:17;66.77;;;56.50;;
3811;SDS011;1921;49.368;11.068;2022-07-19T05:53:42;67.57;;;56.60;;
3811;SDS011;1921;49.368;11.068;2022-07-19T05:56:08;68.80;;;56.90;;
3811;SDS011;1921;49.368;11.068;2022-07-19T05:58:35;67.97;;;55.80;;
3811;SDS011;1921;49.368;11.068;2022-07-19T06:01:01;68.90;;;55.80;;
3811;SDS011;1921;49.368;11.068;2022-07-19T06:03:48;67.10;;;56.00;;
3811;SDS011;1921;49.368;11.068;2022-07-19T06:06:22;70.23;;;56.47;;
3811;SDS011;1921;49.368;11.068;2022-07-19T06:08:50;67.80;;;56.20;;
3811;SDS011;1921;49.368;11.068;2022-07-19T06:11:16;67.20;;;56.20;;
3811;SDS011;1921;49.368;11.068;2022-07-19T06:13:42;73.20;;;55.97;;
3811;SDS011;1921;49.368;11.068;2022-07-19T06:16:10;67.13;;;55.87;;
3811;SDS011;1921;49.368;11.068;2022-07-19T06:18:36;71.40;;;55.90;;
3811;SDS011;1921;49.368;11.068;2022-07-19T06:21:07;65.10;;;55.33;;
3811;SDS011;1921;49.368;11.068;2022-07-19T06:23:39;67.60;;;55.33;;
3811;SDS011;1921;49.368;11.068;2022-07-19T06:26:06;65.47;;;55.23;;
3811;SDS011;1921;49.368;11.068;2022-07-19T06:28:33;72.10;;;55.90;;
3811;SDS011;1921;49.368;11.068;2022-07-19T06:31:00;65.80;;;55.70;;
3811;SDS011;1921;49.368;11.068;2022-07-19T06:33:26;66.40;;;55.77;;
3811;SDS011;1921;49.368;11.068;2022-07-19T06:35:51;65.90;;;55.30;;
3811;SDS011;1921;49.368;11.068;2022-07-19T06:38:17;66.60;;;55.20;;
3811;SDS011;1921;49.368;11.068;2022-07-19T06:40:43;65.57;;;55.60;;
3811;SDS011;1921;49.368;11.068;2022-07-19T06:43:09;68.83;;;56.03;;
3811;SDS011;1921;49.368;11.068;2022-07-19T06:45:36;65.97;;;55.60;;
3811;SDS011;1921;49.368;11.068;2022-07-19T06:48:02;65.37;;;55.00;;
3811;SDS011;1921;49.368;11.068;2022-07-19T06:50:29;67.17;;;55.70;;
3811;SDS011;1921;49.368;11.068;2022-07-19T06:52:54;68.97;;;55.10;;
3811;SDS011;1921;49.368;11.068;2022-07-19T06:55:20;70.20;;;55.53;;
3811;SDS011;1921;49.368;11.068;2022-07-19T06:57:46;66.20;;;55.00;;
3811;SDS011;1921;49.368;11.068;2022-07-19T07:00:13;68.57;;;55.90;;
3811;SDS011;1921;49.368;11.068;2022-07-19T07:02:39;67.17;;;56.00;;
3811;SDS011;1921;49.368;11.068;2022-07-19T07:05:06;68.77;;;55.80;;
3811;SDS011;1921;49.368;11.068;2022-07-19T07:07:34;65.23;;;55.37;;
3811;SDS011;1921;49.368;11.068;2022-07-19T07:10:01;69.17;;;55.30;;
3811;SDS011;1921;49.368;11.068;2022-07-19T07:12:29;68.07;;;55.77;;
3811;SDS011;1921;49.368;11.068;2022-07-19T07:14:54;69.67;;;56.10;;
3811;SDS011;1921;49.368;11.068;2022-07-19T07:17:20;73.03;;;58.13;;
3811;SDS011;1921;49.368;11.068;2022-07-19T07:19:46;71.67;;;55.80;;
3811;SDS011;1921;49.368;11.068;2022-07-19T07:22:13;69.03;;;55.03;;
3811;SDS011;1921;49.368;11.068;2022-07-19T07:24:39;67.17;;;55.37;;
3811;SDS011;1921;49.368;11.068;2022-07-19T07:27:04;66.60;;;55.50;;
3811;SDS011;1921;49.368;11.068;2022-07-19T07:29:30;65.77;;;54.77;;
3811;SDS011;1921;49.368;11.068;2022-07-19T07:31:56;70.97;;;55.37;;
3811;SDS011;1921;49.368;11.068;2022-07-19T07:34:22;75.80;;;56.17;;
3811;SDS011;1921;49.368;11.068;2022-07-19T07:36:48;67.03;;;55.50;;
3811;SDS011;1921;49.368;11.068;2022-07-19T07:39:14;65.37;;;55.30;;
3811;SDS011;1921;49.368;11.068;2022-07-19T07:41:40;65.50;;;55.00;;
3811;SDS011;1921;49.368;11.068;2022-07-19T07:44:06;68.90;;;55.20;;
3811;SDS011;1921;49.368;11.068;2022-07-19T07:46:32;65.57;;;55.35;;
3811;SDS011;1921;49.368;11.068;2022-07-19T07:48:57;65.30;;;55.00;;
3811;SDS011;1921;49.368;11.068;2022-07-19T07:51:24;64.60;;;54.80;;
3811;SDS011;1921;49.368;11.068;2022-07-19T07:53:50;65.78;;;55.10;;
3811;SDS011;1921;49.368;11.068;2022-07-19T07:56:16;65.88;;;55.10;;
3811;SDS011;1921;49.368;11.068;2022-07-19T07:58:41;66.55;;;55.03;;
3811;SDS011;1921;49.368;11.068;2022-07-19T08:01:07;65.18;;;55.08;;
3811;SDS011;1921;49.368;11.068;2022-07-19T08:03:33;66.63;;;55.30;;
3811;SDS011;1921;49.368;11.068;2022-07-19T08:05:59;68.20;;;55.20;;
3811;SDS011;1921;49.368;11.068;2022-07-19T08:08:24;71.22;;;55.80;;
3811;SDS011;1921;49.368;11.068;2022-07-19T08:10:52;68.85;;;55.08;;
3811;SDS011;1921;49.368;11.068;2022-07-19T08:13:19;68.60;;;55.03;;
3811;SDS011;1921;49.368;11.068;2022-07-19T08:15:45;66.97;;;55.60;;
3811;SDS011;1921;49.368;11.068;2022-07-19T08:18:11;65.65;;;55.60;;
3811;SDS011;1921;49.368;11.068;2022-07-19T08:20:37;66.50;;;55.70;;
3811;SDS011;1921;49.368;11.068;2022-07-19T08:23:02;68.72;;;56.47;;
3811;SDS011;1921;49.368;11.068;2022-07-19T08:25:28;68.95;;;55.33;;
3811;SDS011;1921;49.368;11.068;2022-07-19T08:27:54;66.25;;;55.22;;
3811;SDS011;1921;49.368;11.068;2022-07-19T08:30:20;66.07;;;54.95;;
3811;SDS011;1921;49.368;11.068;2022-07-19T08:32:46;64.05;;;54.42;;
3811;SDS011;1921;49.368;11.068;2022-07-19T08:35:12;67.00;;;55.45;;
3811;SDS011;1921;49.368;11.068;2022-07-19T08:37:38;66.00;;;54.70;;
3811;SDS011;1921;49.368;11.068;2022-07-19T08:40:05;65.53;;;55.25;;
3811;SDS011;1921;49.368;11.068;2022-07-19T08:42:32;66.82;;;55.42;;
3811;SDS011;1921;49.368;11.068;2022-07-19T08:45:00;65.60;;;54.85;;
3811;SDS011;1921;49.368;11.068;2022-07-19T08:47:30;65.70;;;55.15;;
3811;SDS011;1921;49.368;11.068;2022-07-19T08:49:58;66.97;;;55.15;;
3811;SDS011;1921;49.368;11.068;2022-07-19T08:52:25;67.55;;;55.28;;
3811;SDS011;1921;49.368;11.068;2022-07-19T08:54:52;64.47;;;54.55;;
3811;SDS011;1921;49.368;11.068;2022-07-19T08:57:19;68.68;;;55.30;;
3811;SDS011;1921;49.368;11.068;2022-07-19T09:00:04;72.10;;;55.85;;
3811;SDS011;1921;49.368;11.068;2022-07-19T09:02:31;71.05;;;56.20;;
3811;SDS011;1921;49.368;11.068;2022-07-19T09:05:15;67.15;;;56.13;;
3811;SDS011;1921;49.368;11.068;2022-07-19T09:07:41;65.57;;;55.38;;
3811;SDS011;1921;49.368;11.068;2022-07-19T09:10:23;72.35;;;56.08;;
3811;SDS011;1921;49.368;11.068;2022-07-19T09:15:39;67.88;;;56.25;;
3811;SDS011;1921;49.368;11.068;2022-07-19T09:18:26;68.60;;;56.28;;
3811;SDS011;1921;49.368;11.068;2022-07-19T09:20:58;68.18;;;55.75;;
3811;SDS011;1921;49.368;11.068;2022-07-19T09:23:29;65.90;;;55.78;;
3811;SDS011;1921;49.368;11.068;2022-07-19T09:26:00;65.43;;;55.40;;
3811;SDS011;1921;49.368;11.068;2022-07-19T09:28:28;66.18;;;55.35;;
3811;SDS011;1921;49.368;11.068;2022-07-19T09:30:58;65.55;;;55.72;;
3811;SDS011;1921;49.368;11.068;2022-07-19T09:33:25;67.90;;;55.38;;
3811;SDS011;1921;49.368;11.068;2022-07-19T09:36:03;66.50;;;55.97;;
3811;SDS011;1921;49.368;11.068;2022-07-19T09:38:37;65.90;;;55.72;;
3811;SDS011;1921;49.368;11.068;2022-07-19T09:41:17;65.88;;;55.10;;
3811;SDS011;1921;49.368;11.068;2022-07-19T09:46:30;67.25;;;56.17;;
3811;SDS011;1921;49.368;11.068;2022-07-19T09:49:05;69.00;;;56.10;;
3811;SDS011;1921;49.368;11.068;2022-07-19T09:51:34;69.90;;;55.58;;
3811;SDS011;1921;49.368;11.068;2022-07-19T09:54:05;67.20;;;55.63;;
3811;SDS011;1921;49.368;11.068;2022-07-19T09:56:33;67.03;;;55.60;;
3811;SDS011;1921;49.368;11.068;2022-07-19T09:59:00;69.30;;;55.83;;
3811;SDS011;1921;49.368;11.068;2022-07-19T10:01:27;70.38;;;56.15;;
3811;SDS011;1921;49.368;11.068;2022-07-19T10:03:55;65.07;;;55.45;;
3811;SDS011;1921;49.368;11.068;2022-07-19T10:06:26;66.85;;;55.63;;
3811;SDS011;1921;49.368;11.068;2022-07-19T10:08:53;66.10;;;55.58;;
3811;SDS011;1921;49.368;11.068;2022-07-19T10:11:20;67.40;;;55.95;;
3811;SDS011;1921;49.368;11.068;2022-07-19T10:13:48;67.70;;;56.08;;
3811;SDS011;1921;49.368;11.068;2022-07-19T10:16:16;66.75;;;56.05;;
3811;SDS011;1921;49.368;11.068;2022-07-19T10:19:33;67.40;;;56.63;;
3811;SDS011;1921;49.368;11.068;2022-07-19T10:21:55;68.57;;;56.55;;
3811;SDS011;1921;49.368;11.068;2022-07-19T10:27:39;66.65;;;55.92;;
3811;SDS011;1921;49.368;11.068;2022-07-19T10:32:35;66.28;;;55.53;;
3811;SDS011;1921;49.368;11.068;2022-07-19T10:35:45;71.75;;;56.53;;
3811;SDS011;1921;49.368;11.068;2022-07-19T10:37:52;68.38;;;55.78;;
3811;SDS011;1921;49.368;11.068;2022-07-19T10:45:39;67.65;;;56.22;;
3811;SDS011;1921;49.368;11.068;2022-07-19T10:49:09;73.70;;;56.88;;
3811;SDS011;1921;49.368;11.068;2022-07-19T10:51:29;66.85;;;56.22;;
3811;SDS011;1921;49.368;11.068;2022-07-19T10:56:31;68.00;;;56.63;;
3811;SDS011;1921;49.368;11.068;2022-07-19T10:59:03;67.97;;;56.17;;
3811;SDS011;1921;49.368;11.068;2022-07-19T11:01:32;70.57;;;56.40;;
3811;SDS011;1921;49.368;11.068;2022-07-19T11:07:09;67.60;;;56.65;;
3811;SDS011;1921;49.368;11.068;2022-07-19T11:09:45;68.07;;;56.42;;
3811;SDS011;1921;49.368;11.068;2022-07-19T11:12:25;67.45;;;55.88;;
3811;SDS011;1921;49.368;11.068;2022-07-19T11:14:56;67.88;;;55.58;;
3811;SDS011;1921;49.368;11.068;2022-07-19T11:17:24;66.43;;;55.63;;
3811;SDS011;1921;49.368;11.068;2022-07-19T11:22:24;65.72;;;55.83;;
3811;SDS011;1921;49.368;11.068;2022-07-19T11:24:49;70.65;;;56.45;;
3811;SDS011;1921;49.368;11.068;2022-07-19T11:27:15;67.20;;;55.92;;
3811;SDS011;1921;49.368;11.068;2022-07-19T11:29:54;66.25;;;55.58;;
3811;SDS011;1921;49.368;11.068;2022-07-19T11:32:22;65.20;;;55.47;;
3811;SDS011;1921;49.368;11.068;2022-07-19T11:34:54;67.20;;;56.15;;
3811;SDS011;1921;49.368;11.068;2022-07-19T11:37:22;67.40;;;56.03;;
3811;SDS011;1921;49.368;11.068;2022-07-19T11:39:50;68.63;;;55.40;;
3811;SDS011;1921;49.368;11.068;2022-07-19T11:42:26;67.47;;;56.05;;
3811;SDS011;1921;49.368;11.068;2022-07-19T11:47:44;65.90;;;55.75;;
3811;SDS011;1921;49.368;11.068;2022-07-19T11:50:17;67.90;;;56.33;;
3811;SDS011;1921;49.368;11.068;2022-07-19T11:52:47;68.72;;;55.85;;
3811;SDS011;1921;49.368;11.068;2022-07-19T11:55:18;67.72;;;55.75;;
3811;SDS011;1921;49.368;11.068;2022-07-19T11:58:01;67.78;;;56.08;;
3811;SDS011;1921;49.368;11.068;2022-07-19T12:00:35;67.45;;;56.45;;
3811;SDS011;1921;49.368;11.068;2022-07-19T12:03:05;66.60;;;55.97;;
3811;SDS011;1921;49.368;11.068;2022-07-19T12:05:32;66.03;;;55.80;;
3811;SDS011;1921;49.368;11.068;2022-07-19T12:08:04;67.43;;;56.08;;
3811;SDS011;1921;49.368;11.068;2022-07-19T12:10:44;66.75;;;55.28;;
3811;SDS011;1921;49.368;11.068;2022-07-19T12:13:30;69.25;;;56.53;;
3811;SDS011;1921;49.368;11.068;2022-07-19T12:16:07;67.25;;;55.58;;
3811;SDS011;1921;49.368;11.068;2022-07-19T12:24:18;69.25;;;55.97;;
3811;SDS011;1921;49.368;11.068;2022-07-19T12:29:17;67.43;;;56.50;;
3811;SDS011;1921;49.368;11.068;2022-07-19T12:31:44;69.60;;;57.05;;
3811;SDS011;1921;49.368;11.068;2022-07-19T12:34:12;68.75;;;56.92;;
3811;SDS011;1921;49.368;11.068;2022-07-19T12:36:39;67.22;;;56.22;;
3811;SDS011;1921;49.368;11.068;2022-07-19T12:39:15;67.97;;;56.30;;
3811;SDS011;1921;49.368;11.068;2022-07-19T12:42:08;68.82;;;56.63;;
3811;SDS011;1921;49.368;11.068;2022-07-19T12:44:34;69.47;;;56.65;;
3811;SDS011;1921;49.368;11.068;2022-07-19T12:47:01;69.40;;;56.28;;
3811;SDS011;1921;49.368;11.068;2022-07-19T12:49:43;66.80;;;56.63;;
3811;SDS011;1921;49.368;11.068;2022-07-19T12:52:11;67.30;;;56.88;;
3811;SDS011;1921;49.368;11.068;2022-07-19T12:54:37;71.43;;;56.75;;
3811;SDS011;1921;49.368;11.068;2022-07-19T12:57:03;67.85;;;56.65;;
3811;SDS011;1921;49.368;11.068;2022-07-19T12:59:29;68.90;;;56.50;;
3811;SDS011;1921;49.368;11.068;2022-07-19T13:02:05;69.65;;;57.08;;
3811;SDS011;1921;49.368;11.068;2022-07-19T13:04:33;69.53;;;57.00;;
3811;SDS011;1921;49.368;11.068;2022-07-19T13:07:00;69.20;;;57.40;;
3811;SDS011;1921;49.368;11.068;2022-07-19T13:09:26;66.95;;;56.55;;
3811;SDS011;1921;49.368;11.068;2022-07-19T13:11:52;69.38;;;56.95;;
3811;SDS011;1921;49.368;11.068;2022-07-19T13:14:18;67.25;;;56.70;;
3811;SDS011;1921;49.368;11.068;2022-07-19T13:16:44;68.05;;;57.38;;
3811;SDS011;1921;49.368;11.068;2022-07-19T13:19:09;67.55;;;56.67;;
3811;SDS011;1921;49.368;11.068;2022-07-19T13:21:35;69.05;;;57.45;;
3811;SDS011;1921;49.368;11.068;2022-07-19T13:24:01;67.53;;;56.58;;
3811;SDS011;1921;49.368;11.068;2022-07-19T13:26:27;68.20;;;56.95;;
3811;SDS011;1921;49.368;11.068;2022-07-19T13:28:53;68.57;;;56.78;;
3811;SDS011;1921;49.368;11.068;2022-07-19T13:31:18;67.93;;;56.95;;
3811;SDS011;1921;49.368;11.068;2022-07-19T13:33:44;76.75;;;57.40;;
3811;SDS011;1921;49.368;11.068;2022-07-19T13:36:10;69.32;;;57.25;;
3811;SDS011;1921;49.368;11.068;2022-07-19T13:38:36;67.78;;;57.10;;
3811;SDS011;1921;49.368;11.068;2022-07-19T13:41:06;67.30;;;57.15;;
3811;SDS011;1921;49.368;11.068;2022-07-19T13:43:32;71.75;;;57.13;;
3811;SDS011;1921;49.368;11.068;2022-07-19T13:45:58;69.53;;;56.83;;
3811;SDS011;1921;49.368;11.068;2022-07-19T13:48:24;68.03;;;56.45;;
3811;SDS011;1921;49.368;11.068;2022-07-19T13:50:53;70.00;;;57.03;;
3811;SDS011;1921;49.368;11.068;2022-07-19T13:53:18;67.80;;;56.85;;
3811;SDS011;1921;49.368;11.068;2022-07-19T13:55:44;66.03;;;56.47;;
3811;SDS011;1921;49.368;11.068;2022-07-19T13:58:10;71.90;;;57.38;;
3811;SDS011;1921;49.368;11.068;2022-07-19T14:00:36;68.10;;;57.45;;
3811;SDS011;1921;49.368;11.068;2022-07-19T14:03:01;67.25;;;56.40;;
3811;SDS011;1921;49.368;11.068;2022-07-19T14:05:27;72.68;;;56.72;;
3811;SDS011;1921;49.368;11.068;2022-07-19T14:07:53;68.80;;;57.45;;
3811;SDS011;1921;49.368;11.068;2022-07-19T14:10:19;65.85;;;56.47;;
3811;SDS011;1921;49.368;11.068;2022-07-19T14:12:45;70.45;;;56.50;;
3811;SDS011;1921;49.368;11.068;2022-07-19T14:15:11;67.78;;;57.35;;
3811;SDS011;1921;49.368;11.068;2022-07-19T14:17:37;69.05;;;56.95;;
3811;SDS011;1921;49.368;11.068;2022-07-19T14:20:03;68.20;;;56.65;;
3811;SDS011;1921;49.368;11.068;2022-07-19T14:22:31;69.00;;;56.90;;
3811;SDS011;1921;49.368;11.068;2022-07-19T14:24:57;68.72;;;57.40;;
3811;SDS011;1921;49.368;11.068;2022-07-19T14:27:24;70.22;;;56.65;;
3811;SDS011;1921;49.368;11.068;2022-07-19T14:29:50;72.78;;;57.13;;
3811;SDS011;1921;49.368;11.068;2022-07-19T14:32:16;67.43;;;56.13;;
3811;SDS011;1921;49.368;11.068;2022-07-19T14:34:42;70.72;;;57.28;;
3811;SDS011;1921;49.368;11.068;2022-07-19T14:37:08;68.93;;;56.90;;
3811;SDS011;1921;49.368;11.068;2022-07-19T14:39:34;69.10;;;57.38;;
3811;SDS011;1921;49.368;11.068;2022-07-19T14:42:01;68.57;;;57.38;;
3811;SDS011;1921;49.368;11.068;2022-07-19T14:44:28;71.65;;;57.95;;
3811;SDS011;1921;49.368;11.068;2022-07-19T14:46:53;70.03;;;57.38;;
3811;SDS011;1921;49.368;11.068;2022-07-19T14:49:22;70.10;;;58.13;;
3811;SDS011;1921;49.368;11.068;2022-07-19T14:51:48;68.97;;;57.42;;
3811;SDS011;1921;49.368;11.068;2022-07-19T14:54:14;68.18;;;56.83;;
3811;SDS011;1921;49.368;11.068;2022-07-19T14:56:40;68.10;;;56.75;;
3811;SDS011;1921;49.368;11.068;2022-07-19T14:59:06;68.78;;;57.65;;
3811;SDS011;1921;49.368;11.068;2022-07-19T15:01:31;71.70;;;58.15;;
3811;SDS011;1921;49.368;11.068;2022-07-19T15:03:57;69.90;;;57.90;;
3811;SDS011;1921;49.368;11.068;2022-07-19T15:06:23;69.93;;;57.30;;
3811;SDS011;1921;49.368;11.068;2022-07-19T15:08:49;68.43;;;57.75;;
3811;SDS011;1921;49.368;11.068;2022-07-19T15:11:15;68.32;;;57.00;;
3811;SDS011;1921;49.368;11.068;2022-07-19T15:13:40;66.88;;;57.25;;